Time;durP1;ratioP1;P1;durP2;ratioP2;P2;SDS_P1;SDS_P2;PMS_P1;PMS_P2;Temp;Humidity;BMP_temperature;BMP_pressure;BME280_temperature;BME280_humidity;BME280_pressure;Samples;Min_cycle;Max_cycle;Signal;HPM_P1;HPM_P2
2021/11/28 00:02:20;;;;;;;7.43;3.30;;;;;;;-0.65;100.00;93463.84;5028036;28;20041;-75
2021/11/28 00:04:47;;;;;;;7.15;3.35;;;;;;;-0.76;100.00;93457.03;5027065;28;20041;-75
2021/11/28 00:10:06;;;;;;;;;;;;;;;-0.45;100.00;93462.41;5027695;28;20042;-75
2021/11/28 00:12:47;;;;;;;11.73;3.65;;;;;;;-0.44;100.00;93463.97;5035553;28;19925;-75
2021/11/28 00:15:17;;;;;;;8.75;3.35;;;;;;;-0.55;100.00;93448.41;5008761;28;20042;-75
2021/11/28 00:17:43;;;;;;;6.38;3.38;;;;;;;-0.50;100.00;93462.38;5023647;28;20048;-75
2021/11/28 00:20:12;;;;;;;6.32;3.33;;;;;;;-0.43;100.00;93460.34;5027929;28;20051;-75
2021/11/28 00:22:39;;;;;;;7.03;3.20;;;;;;;-0.46;100.00;93455.66;5027056;28;20138;-75
2021/11/28 00:25:10;;;;;;;5.95;3.17;;;;;;;-0.58;100.00;93451.47;5012054;28;20041;-76
2021/11/28 00:27:37;;;;;;;6.70;3.50;;;;;;;-0.57;100.00;93447.88;5009070;28;20396;-75
2021/11/28 00:30:05;;;;;;;7.03;2.92;;;;;;;-0.56;100.00;93452.03;5009343;28;20033;-76
2021/11/28 00:32:30;;;;;;;4.93;2.60;;;;;;;-0.56;100.00;93452.03;5027288;28;20534;-75
2021/11/28 00:34:56;;;;;;;5.88;3.03;;;;;;;-0.58;100.00;93454.06;5027044;28;20045;-75
2021/11/28 00:37:21;;;;;;;5.85;3.28;;;;;;;-0.67;100.00;93450.41;5013309;28;20053;-76
2021/11/28 00:39:47;;;;;;;4.88;2.72;;;;;;;-0.45;100.00;93454.66;5028869;28;20045;-75
2021/11/28 00:42:14;;;;;;;5.30;2.97;;;;;;;-0.43;100.00;93450.78;5027045;28;20045;-75
2021/11/28 00:44:40;;;;;;;5.88;2.72;;;;;;;-0.55;100.00;93448.41;5027439;28;20052;-76
2021/11/28 00:47:06;;;;;;;6.05;3.00;;;;;;;-0.45;100.00;93450.25;5026576;28;20041;-75
2021/11/28 00:49:34;;;;;;;8.25;3.25;;;;;;;-0.44;100.00;93456.22;5027572;28;20048;-76
2021/11/28 00:51:59;;;;;;;9.23;3.42;;;;;;;-0.39;100.00;93451.06;5008939;28;20038;-75
2021/11/28 00:54:27;;;;;;;7.97;3.38;;;;;;;-0.34;100.00;93458.84;5023079;28;20400;-75
2021/11/28 00:56:53;;;;;;;8.77;3.50;;;;;;;-0.39;100.00;93451.06;5024488;28;20073;-74
2021/11/28 00:59:19;;;;;;;7.50;3.20;;;;;;;-0.30;100.00;93457.31;5030083;28;20045;-76
2021/11/28 01:01:45;;;;;;;8.23;2.88;;;;;;;-0.24;100.00;93458.88;5030661;28;20049;-75
2021/11/28 01:04:11;;;;;;;5.40;3.00;;;;;;;-0.26;100.00;93458.38;5012660;28;20050;-75
2021/11/28 01:06:37;;;;;;;13.55;3.15;;;;;;;-0.26;100.00;93460.16;5026293;28;20107;-75
2021/11/28 01:09:07;;;;;;;5.53;3.13;;;;;;;-0.22;100.00;93477.50;5033303;28;20042;-75
2021/11/28 01:11:33;;;;;;;7.10;3.25;;;;;;;-0.26;100.00;93471.31;5013029;28;20080;-75
2021/11/28 01:13:59;;;;;;;3.78;2.28;;;;;;;-0.28;100.00;93473.34;5028145;28;20056;-75
2021/11/28 01:16:25;;;;;;;6.05;2.63;;;;;;;-0.31;100.00;93484.19;5027314;28;20834;-75
2021/11/28 01:18:51;;;;;;;4.82;2.80;;;;;;;-0.30;100.00;93475.41;5030608;28;20041;-75
2021/11/28 01:21:17;;;;;;;5.97;2.55;;;;;;;-0.39;100.00;93472.53;5012522;28;20041;-75
2021/11/28 01:23:42;;;;;;;4.25;2.70;;;;;;;-0.30;100.00;93479.78;5028859;28;20052;-75
2021/11/28 01:26:08;;;;;;;4.43;2.35;;;;;;;-0.32;100.00;93487.78;5034263;28;20828;-75
2021/11/28 01:28:34;;;;;;;4.43;2.30;;;;;;;-0.32;100.00;93480.03;5030242;28;20120;-75
2021/11/28 01:31:00;;;;;;;4.90;2.10;;;;;;;-0.29;100.00;93484.69;5030519;28;20041;-75
2021/11/28 01:33:26;;;;;;;4.32;2.42;;;;;;;-0.30;100.00;93485.75;4999523;28;20056;-75
2021/11/28 01:35:52;;;;;;;4.90;2.35;;;;;;;-0.31;100.00;93489.34;5032605;28;20045;-75
2021/11/28 01:38:20;;;;;;;5.15;2.35;;;;;;;-0.33;100.00;93491.44;5023615;28;20411;-75
2021/11/28 01:40:49;;;;;;;5.90;2.40;;;;;;;-0.31;100.00;93501.50;5031060;28;20088;-75
2021/11/28 01:43:16;;;;;;;4.22;2.28;;;;;;;-0.37;100.00;93500.72;5030287;28;20476;-75
2021/11/28 01:45:45;;;;;;;4.55;2.25;;;;;;;-0.33;100.00;93506.13;5028638;28;20068;-75
2021/11/28 01:48:12;;;;;;;3.47;2.00;;;;;;;-0.32;100.00;93513.63;5029906;28;20487;-75
2021/11/28 01:50:40;;;;;;;4.25;2.38;;;;;;;-0.35;100.00;93524.47;5012959;28;20057;-75
2021/11/28 01:53:19;;;;;;;2.85;1.90;;;;;;;-0.37;100.00;93505.88;5021856;28;20468;-76
2021/11/28 01:55:45;;;;;;;3.30;2.08;;;;;;;-0.40;100.00;93506.38;5030246;28;20050;-76
2021/11/28 01:58:11;;;;;;;3.47;2.10;;;;;;;-0.40;100.00;93496.03;5027352;28;20080;-75
2021/11/28 02:00:50;;;;;;;3.40;2.08;;;;;;;-0.38;100.00;93509.47;5029996;28;20124;-75
2021/11/28 02:03:18;;;;;;;4.70;2.47;;;;;;;-0.38;100.00;93504.31;5013899;28;20443;-75
2021/11/28 02:05:47;;;;;;;5.60;2.35;;;;;;;-0.42;100.00;93505.84;5029936;28;20069;-75
2021/11/28 02:08:13;;;;;;;4.43;2.50;;;;;;;-0.44;100.00;93505.31;5002866;28;20053;-75
2021/11/28 02:10:40;;;;;;;4.32;2.40;;;;;;;-0.46;100.00;93510.72;5030097;28;20038;-75
2021/11/28 02:13:05;;;;;;;5.30;2.80;;;;;;;-0.47;100.00;93511.00;5029107;28;20459;-75
2021/11/28 02:15:31;;;;;;;3.83;2.28;;;;;;;-0.53;100.00;93503.19;5010831;28;20057;-75
2021/11/28 02:17:57;;;;;;;5.85;2.78;;;;;;;-0.53;100.00;93498.03;5029345;28;20093;-75
2021/11/28 02:20:26;;;;;;;5.80;2.80;;;;;;;-0.54;100.00;93491.28;5029940;28;20037;-75
2021/11/28 02:22:52;;;;;;;5.13;2.67;;;;;;;-0.51;100.00;93489.25;5012174;28;20113;-75
2021/11/28 02:25:19;;;;;;;5.78;2.70;;;;;;;-0.54;100.00;93488.72;5012144;28;20045;-75
2021/11/28 02:27:45;;;;;;;6.90;2.60;;;;;;;-0.53;100.00;93482.53;5015803;28;20348;-75
2021/11/28 02:30:13;;;;;;;6.10;2.55;;;;;;;-0.54;100.00;93470.63;5031527;28;20087;-75
2021/11/28 02:32:39;;;;;;;4.70;2.53;;;;;;;-0.56;100.00;93462.34;5040389;28;20064;-76
2021/11/28 02:35:06;;;;;;;5.35;2.50;;;;;;;-0.53;100.00;93463.66;5029772;28;20041;-75
2021/11/28 02:37:31;;;;;;;5.13;2.85;;;;;;;-0.57;100.00;93454.84;5021538;28;20531;-75
2021/11/28 02:39:58;;;;;;;6.28;2.75;;;;;;;-0.55;100.00;93458.75;5029750;28;20037;-75
2021/11/28 02:42:25;;;;;;;10.13;3.22;;;;;;;-0.55;100.00;93473.47;5010691;28;20073;-75
2021/11/28 02:44:50;;;;;;;6.18;2.90;;;;;;;-0.55;100.00;93484.59;5029645;28;20057;-76
2021/11/28 02:47:16;;;;;;;5.55;2.83;;;;;;;-0.57;100.00;93476.28;5017579;28;20041;-75
2021/11/28 02:49:42;;;;;;;3.97;2.50;;;;;;;-0.60;100.00;93461.28;5029345;28;20056;-75
2021/11/28 02:52:11;;;;;;;8.38;2.78;;;;;;;-0.58;100.00;93461.81;5028939;28;20133;-75
2021/11/28 02:54:38;;;;;;;4.10;2.70;;;;;;;-0.61;100.00;93451.97;5008674;28;20068;-76
2021/11/28 02:57:04;;;;;;;5.75;2.90;;;;;;;-0.61;100.00;93439.06;5010052;28;20088;-75
2021/11/28 02:59:30;;;;;;;4.32;2.40;;;;;;;-0.64;100.00;93438.78;5029866;28;20513;-75
2021/11/28 03:01:57;;;;;;;6.78;2.60;;;;;;;-0.61;100.00;93427.97;5028712;28;20100;-75
2021/11/28 03:04:23;;;;;;;4.72;2.83;;;;;;;-0.64;100.00;93426.66;5029082;28;20091;-74
2021/11/28 03:06:48;;;;;;;5.30;2.83;;;;;;;-0.63;100.00;93420.47;5028669;28;20057;-75
2021/11/28 03:09:14;;;;;;;3.90;2.40;;;;;;;-0.65;100.00;93424.31;5028247;28;20041;-75
2021/11/28 03:11:40;;;;;;;5.53;2.50;;;;;;;-0.60;100.00;93425.13;5028668;28;20107;-75
2021/11/28 03:14:05;;;;;;;4.35;2.60;;;;;;;-0.58;100.00;93430.81;5028274;28;20392;-75
2021/11/28 03:16:31;;;;;;;4.30;2.53;;;;;;;-0.60;100.00;93435.47;5027874;28;20204;-75
2021/11/28 03:18:56;;;;;;;5.28;2.60;;;;;;;-0.59;100.00;93431.06;5027964;28;20491;-76
2021/11/28 03:21:25;;;;;;;6.28;2.25;;;;;;;-0.63;100.00;93420.47;5023997;28;20045;-75
2021/11/28 03:23:54;;;;;;;3.25;1.95;;;;;;;-0.61;100.00;93423.56;5028067;28;20045;-75
2021/11/28 03:26:31;;;;;;;4.55;2.63;;;;;;;-0.64;100.00;93424.06;5030494;28;20045;-75
2021/11/28 03:29:00;;;;;;;4.22;2.55;;;;;;;-0.64;100.00;93424.06;5009620;28;20499;-74
2021/11/28 03:31:28;;;;;;;3.75;2.30;;;;;;;-0.63;100.00;93422.25;5028645;28;20610;-75
2021/11/28 03:33:54;;;;;;;5.80;2.50;;;;;;;-0.65;100.00;93422.50;5027972;28;20435;-75
2021/11/28 03:36:23;;;;;;;3.85;2.13;;;;;;;-0.67;100.00;93424.56;5027292;28;20415;-75
2021/11/28 03:38:50;;;;;;;4.07;2.35;;;;;;;-0.67;100.00;93419.41;5021222;28;20048;-75
2021/11/28 03:41:18;;;;;;;5.65;2.60;;;;;;;-0.70;100.00;93396.66;5018911;28;20050;-75
2021/11/28 03:43:44;;;;;;;6.50;2.60;;;;;;;-0.69;100.00;93405.94;5027831;28;20052;-75
2021/11/28 03:46:11;;;;;;;5.80;2.50;;;;;;;-0.61;100.00;93417.63;5021029;28;20049;-75
2021/11/28 03:48:36;;;;;;;4.88;2.20;;;;;;;-0.68;100.00;93409.31;5020375;28;20038;-75
2021/11/28 03:51:03;;;;;;;3.50;2.10;;;;;;;-0.67;100.00;93414.22;5027996;28;20033;-75
2021/11/28 03:53:28;;;;;;;6.78;3.00;;;;;;;-0.72;100.00;93406.44;5027593;28;20049;-75
2021/11/28 03:55:54;;;;;;;4.72;2.40;;;;;;;-0.72;100.00;93406.44;5003451;28;20570;-75
2021/11/28 03:58:20;;;;;;;6.05;2.58;;;;;;;-0.75;100.00;93406.94;5014684;28;20045;-76
2021/11/28 04:00:46;;;;;;;4.72;2.30;;;;;;;-0.78;100.00;93408.22;5028388;28;20064;-75
2021/11/28 04:03:12;;;;;;;4.88;2.60;;;;;;;-0.71;100.00;93408.00;5006178;28;20041;-75
2021/11/28 04:05:39;;;;;;;5.35;2.20;;;;;;;-0.68;100.00;93404.16;5010768;28;20108;-75
2021/11/28 04:08:06;;;;;;;4.70;2.33;;;;;;;-0.67;100.00;93403.91;5016822;28;20041;-75
2021/11/28 04:10:32;;;;;;;5.43;2.80;;;;;;;-0.67;100.00;93409.06;5027542;28;20414;-75
2021/11/28 04:12:58;;;;;;;4.05;2.33;;;;;;;-0.66;100.00;93395.13;5027202;28;20124;-75
2021/11/28 04:15:23;;;;;;;8.35;2.70;;;;;;;-0.79;100.00;93405.88;5006975;28;20041;-75
2021/11/28 04:17:50;;;;;;;4.95;2.45;;;;;;;-0.84;100.00;93408.47;5033488;28;20543;-76
2021/11/28 04:20:16;;;;;;;5.82;2.25;;;;;;;-0.88;100.00;93414.13;5009794;28;20041;-75
2021/11/28 04:22:43;;;;;;;5.65;2.60;;;;;;;-1.00;100.00;93426.44;5033192;28;20049;-75
2021/11/28 04:25:12;;;;;;;6.38;2.85;;;;;;;-1.09;100.00;93417.59;5022342;28;20045;-75
2021/11/28 04:27:38;;;;;;;6.25;2.70;;;;;;;-1.10;100.00;93413.47;5023594;28;20041;-75
2021/11/28 04:30:05;;;;;;;4.95;2.45;;;;;;;-1.09;100.00;93417.59;5010277;28;20045;-76
2021/11/28 04:32:31;;;;;;;3.60;2.20;;;;;;;-1.03;100.00;93416.59;5026524;28;20064;-75
2021/11/28 04:34:57;;;;;;;4.57;2.30;;;;;;;-0.80;100.00;93412.09;5031621;28;20068;-75
2021/11/28 04:37:23;;;;;;;6.32;2.50;;;;;;;-0.66;100.00;93410.63;5014575;28;20045;-75
2021/11/28 04:39:49;;;;;;;4.07;2.15;;;;;;;-0.65;100.00;93411.41;5031197;28;20199;-75
2021/11/28 04:42:14;;;;;;;3.50;2.10;;;;;;;-0.65;100.00;93417.34;5030579;28;20045;-75
2021/11/28 04:44:40;;;;;;;3.78;2.50;;;;;;;-0.62;100.00;93416.81;5013893;28;20099;-75
2021/11/28 04:47:05;;;;;;;5.93;2.20;;;;;;;-0.59;100.00;93416.34;5022627;28;20120;-75
2021/11/28 04:49:31;;;;;;;4.50;2.25;;;;;;;-0.58;100.00;93412.72;5034056;28;20095;-75
2021/11/28 04:51:57;;;;;;;4.80;2.40;;;;;;;-0.64;100.00;93413.72;5044129;28;20041;-75
2021/11/28 04:54:23;;;;;;;4.35;2.40;;;;;;;-0.61;100.00;93413.22;5027717;28;20583;-76
2021/11/28 04:56:49;;;;;;;4.32;2.40;;;;;;;-0.61;100.00;93408.06;5029547;28;20033;-75
2021/11/28 04:59:14;;;;;;;6.00;2.58;;;;;;;-0.58;100.00;93409.38;5019971;28;20526;-76
2021/11/28 05:01:40;;;;;;;4.85;2.45;;;;;;;-0.58;100.00;93412.72;5031164;28;20049;-75
2021/11/28 05:04:06;;;;;;;4.00;2.40;;;;;;;-0.64;100.00;93410.38;5030096;28;20087;-75
2021/11/28 05:06:31;;;;;;;4.03;2.30;;;;;;;-0.63;100.00;93414.50;5029527;28;20045;-75
2021/11/28 05:08:57;;;;;;;4.65;2.30;;;;;;;-0.66;100.00;93423.53;5035959;28;20506;-75
2021/11/28 05:11:23;;;;;;;5.65;2.58;;;;;;;-0.79;100.00;93423.97;5031290;28;20046;-75
2021/11/28 05:13:48;;;;;;;5.63;2.80;;;;;;;-0.82;100.00;93421.88;5029918;28;20048;-75
2021/11/28 05:16:14;;;;;;;5.50;2.85;;;;;;;-0.80;100.00;93425.03;5009698;28;20041;-75
2021/11/28 05:18:39;;;;;;;3.90;2.20;;;;;;;-0.76;100.00;93420.88;5026759;28;20037;-76
2021/11/28 05:21:05;;;;;;;6.35;2.60;;;;;;;-0.68;100.00;93429.97;5030259;28;20534;-75
2021/11/28 05:23:31;;;;;;;4.57;2.35;;;;;;;-0.68;100.00;93427.41;5011382;28;20080;-75
2021/11/28 05:25:57;;;;;;;6.50;3.00;;;;;;;-0.66;100.00;93431.28;5025286;28;20042;-75
2021/11/28 05:28:22;;;;;;;5.20;2.75;;;;;;;-0.72;100.00;93432.28;5024368;28;20418;-75
2021/11/28 05:30:48;;;;;;;5.40;2.58;;;;;;;-0.72;100.00;93437.44;5031032;28;20041;-75
2021/11/28 05:33:13;;;;;;;4.63;2.67;;;;;;;-0.76;100.00;93436.38;5029585;28;20056;-76
2021/11/28 05:35:39;;;;;;;6.68;2.80;;;;;;;-0.76;100.00;93426.06;5027028;28;20035;-75
2021/11/28 05:38:05;;;;;;;5.30;2.50;;;;;;;-0.76;100.00;93433.78;5024075;28;20467;-75
2021/11/28 05:40:30;;;;;;;4.80;2.72;;;;;;;-0.65;100.00;93432.84;5030356;28;20071;-76
2021/11/28 05:42:56;;;;;;;6.30;2.65;;;;;;;-0.63;100.00;93440.34;5029790;28;20038;-76
2021/11/28 05:45:24;;;;;;;4.70;2.67;;;;;;;-0.64;100.00;93444.72;5032683;28;20049;-75
2021/11/28 05:47:51;;;;;;;7.10;2.92;;;;;;;-0.68;100.00;93438.50;5039672;28;20099;-75
2021/11/28 05:50:18;;;;;;;4.82;2.70;;;;;;;-0.73;100.00;93446.25;4993594;28;20046;-75
2021/11/28 05:52:44;;;;;;;8.13;2.60;;;;;;;-0.80;100.00;93450.84;5018796;28;20045;-76
2021/11/28 05:55:10;;;;;;;5.78;2.85;;;;;;;-0.73;100.00;93448.81;5020053;28;20084;-75
2021/11/28 05:57:37;;;;;;;4.43;2.60;;;;;;;-0.67;100.00;93452.97;5011591;28;20046;-76
2021/11/28 06:00:09;;;;;;;6.65;2.90;;;;;;;-0.62;100.00;93437.50;5011769;28;20041;-75
2021/11/28 06:02:36;;;;;;;4.40;2.50;;;;;;;-0.62;100.00;93442.66;5029375;28;20046;-76
2021/11/28 06:05:03;;;;;;;4.57;2.67;;;;;;;-0.59;100.00;93447.34;5025762;28;20695;-76
2021/11/28 06:07:29;;;;;;;5.53;3.00;;;;;;;-0.64;100.00;93443.97;5015075;28;20041;-75
2021/11/28 06:09:55;;;;;;;4.40;2.70;;;;;;;-0.55;100.00;93442.44;5029758;28;20042;-75
2021/11/28 06:12:20;;;;;;;5.38;2.55;;;;;;;-0.58;100.00;93443.72;5029545;28;20041;-75
2021/11/28 06:14:46;;;;;;;5.47;2.80;;;;;;;-0.61;100.00;93433.88;5037436;28;20041;-75
2021/11/28 06:17:11;;;;;;;4.57;2.53;;;;;;;-0.55;100.00;93435.50;5029754;28;20052;-75
2021/11/28 06:19:37;;;;;;;8.18;3.17;;;;;;;-0.57;100.00;93439.34;5005637;28;20054;-75
2021/11/28 06:22:03;;;;;;;7.03;3.20;;;;;;;-0.61;100.00;93436.47;5029925;28;20274;-76
2021/11/28 06:24:28;;;;;;;18.77;6.55;;;;;;;-0.63;100.00;93441.13;5025231;28;20124;-75
2021/11/28 06:26:54;;;;;;;6.82;3.40;;;;;;;-0.61;100.00;93448.63;5028770;28;20038;-75
2021/11/28 06:29:19;;;;;;;5.88;2.70;;;;;;;-0.67;100.00;93447.81;5029148;28;20042;-75
2021/11/28 06:31:45;;;;;;;8.63;3.28;;;;;;;-0.67;100.00;93439.28;5029255;28;20532;-74
2021/11/28 06:34:10;;;;;;;6.72;2.40;;;;;;;-0.64;100.00;93443.97;5027918;28;20067;-76
2021/11/28 06:36:36;;;;;;;6.75;3.50;;;;;;;-0.64;100.00;93439.56;5027543;28;20091;-75
2021/11/28 06:39:02;;;;;;;9.55;4.00;;;;;;;-0.65;100.00;93440.59;5029350;28;20045;-75
2021/11/28 06:41:28;;;;;;;14.32;4.57;;;;;;;-0.67;100.00;93445.22;5011027;28;20046;-75
2021/11/28 06:43:54;;;;;;;8.07;3.65;;;;;;;-0.72;100.00;93433.06;5025569;28;20064;-76
2021/11/28 06:46:20;;;;;;;5.65;3.05;;;;;;;-0.75;100.00;93453.44;5029145;28;20037;-76
2021/11/28 06:48:45;;;;;;;7.70;3.35;;;;;;;-0.74;100.00;93448.03;5029536;28;20044;-75
2021/11/28 06:51:11;;;;;;;9.05;4.25;;;;;;;-0.63;100.00;93451.47;5028282;28;20045;-76
2021/11/28 06:53:37;;;;;;;8.15;3.45;;;;;;;-0.60;100.00;93456.13;5027633;28;20045;-75
2021/11/28 06:56:04;;;;;;;7.03;3.03;;;;;;;-0.72;100.00;93458.09;5022669;28;20052;-75
2021/11/28 06:58:34;;;;;;;5.88;3.47;;;;;;;-0.88;100.00;93464.97;5015230;28;20045;-75
2021/11/28 07:01:01;;;;;;;6.30;3.08;;;;;;;-0.89;100.00;93469.38;5023004;28;20041;-76
2021/11/28 07:03:27;;;;;;;4.47;2.70;;;;;;;-0.78;100.00;93474.59;5028006;28;20112;-75
2021/11/28 07:05:52;;;;;;;5.40;2.70;;;;;;;-0.68;100.00;93477.25;5026078;28;20096;-76
2021/11/28 07:08:18;;;;;;;5.95;3.17;;;;;;;-0.62;100.00;93478.84;5029203;28;20124;-76
2021/11/28 07:10:44;;;;;;;5.65;3.10;;;;;;;-0.57;100.00;93484.03;5030376;28;20100;-76
2021/11/28 07:13:09;;;;;;;5.10;3.10;;;;;;;-0.53;100.00;93487.69;5028641;28;20124;-76
2021/11/28 07:15:36;;;;;;;7.35;3.15;;;;;;;-0.61;100.00;93474.47;5026278;28;20042;-76
2021/11/28 07:18:03;;;;;;;4.93;2.75;;;;;;;-0.66;100.00;93482.97;5009696;28;20415;-76
2021/11/28 07:20:30;;;;;;;5.47;3.00;;;;;;;-0.68;100.00;93490.16;5023811;28;20041;-76
2021/11/28 07:22:58;;;;;;;6.65;2.72;;;;;;;-0.58;100.00;93492.81;5009572;28;20041;-76
2021/11/28 07:25:24;;;;;;;5.63;2.65;;;;;;;-0.68;100.00;93485.00;5029217;28;20528;-76
2021/11/28 07:27:49;;;;;;;4.95;2.70;;;;;;;-0.60;100.00;93487.13;5029313;28;20041;-76
2021/11/28 07:30:15;;;;;;;5.93;3.00;;;;;;;-0.56;100.00;93493.34;5012556;28;20041;-76
2021/11/28 07:32:41;;;;;;;6.53;2.92;;;;;;;-0.55;100.00;93488.97;5011273;28;20646;-76
2021/11/28 07:35:07;;;;;;;5.93;2.60;;;;;;;-0.66;100.00;93488.13;5028751;28;20048;-75
2021/11/28 07:37:32;;;;;;;4.50;2.65;;;;;;;-0.61;100.00;93488.16;5024886;28;20075;-76
2021/11/28 07:39:58;;;;;;;11.10;2.95;;;;;;;-0.71;100.00;93475.16;5028252;28;20042;-76
2021/11/28 07:42:23;;;;;;;6.63;2.60;;;;;;;-0.64;100.00;93486.06;5027194;28;20507;-76
2021/11/28 07:44:50;;;;;;;4.75;2.35;;;;;;;-0.61;100.00;93479.63;5027543;28;20049;-76
2021/11/28 07:47:16;;;;;;;5.15;2.75;;;;;;;-0.65;100.00;93471.59;5021815;28;20100;-76
2021/11/28 07:49:41;;;;;;;5.60;2.92;;;;;;;-0.50;100.00;93481.25;5028141;28;20411;-76
2021/11/28 07:52:08;;;;;;;5.70;2.88;;;;;;;-0.64;100.00;93474.97;5010077;28;20120;-76
2021/11/28 07:54:34;;;;;;;6.35;3.25;;;;;;;-0.53;100.00;93477.34;5028199;28;20052;-76
2021/11/28 07:57:02;;;;;;;6.97;3.42;;;;;;;-0.48;100.00;93478.41;5017666;28;20064;-75
2021/11/28 07:59:29;;;;;;;7.25;3.45;;;;;;;-0.49;100.00;93476.84;5012307;28;20034;-75
2021/11/28 08:01:54;;;;;;;8.18;3.28;;;;;;;-0.51;100.00;93478.91;5022398;28;20041;-76
2021/11/28 08:04:20;;;;;;;7.55;3.33;;;;;;;-0.51;100.00;93478.91;5027255;28;20049;-75
2021/11/28 08:06:45;;;;;;;7.88;3.10;;;;;;;-0.41;100.00;93478.97;4994098;28;20045;-75
2021/11/28 08:09:11;;;;;;;5.82;2.75;;;;;;;-0.38;100.00;93479.22;5018726;28;20050;-76
2021/11/28 08:11:37;;;;;;;6.32;3.13;;;;;;;-0.57;100.00;93486.63;5027886;28;20046;-76
2021/11/28 08:14:02;;;;;;;5.30;3.08;;;;;;;-0.49;100.00;93484.59;5006928;28;20041;-75
2021/11/28 08:16:28;;;;;;;5.63;2.80;;;;;;;-0.52;100.00;93496.22;5027138;28;20099;-75
2021/11/28 08:18:54;;;;;;;5.55;2.92;;;;;;;-0.36;100.00;93486.72;5028153;28;20557;-75
2021/11/28 08:21:26;;;;;;;4.38;2.47;;;;;;;-0.34;100.00;93484.69;5010310;28;20119;-75
2021/11/28 08:23:51;;;;;;;8.30;3.05;;;;;;;-0.31;100.00;93486.00;5022581;28;20049;-75
2021/11/28 08:26:17;;;;;;;6.05;2.80;;;;;;;-0.36;100.00;93491.91;5024396;28;20037;-75
2021/11/28 08:28:44;;;;;;;7.65;2.63;;;;;;;-0.23;100.00;93486.31;5021651;28;20125;-76
2021/11/28 08:31:10;;;;;;;9.85;3.58;;;;;;;-0.19;100.00;93497.69;5028523;28;20045;-76
2021/11/28 08:33:35;;;;;;;6.78;3.28;;;;;;;-0.10;100.00;93494.63;5009059;28;20052;-76
2021/11/28 08:36:01;;;;;;;6.90;2.95;;;;;;;-0.05;100.00;93489.47;5026727;28;20620;-76
2021/11/28 08:38:27;;;;;;;7.00;3.10;;;;;;;-0.11;100.00;93499.03;5010961;28;20041;-76
2021/11/28 08:40:52;;;;;;;5.72;2.92;;;;;;;-0.10;100.00;93499.78;5028487;28;20495;-76
2021/11/28 08:43:18;;;;;;;6.53;3.10;;;;;;;-0.08;100.00;93492.56;5029072;28;20545;-76
2021/11/28 08:45:43;;;;;;;5.38;2.80;;;;;;;-0.05;100.00;93498.00;5005877;28;20746;-76
2021/11/28 08:48:09;;;;;;;5.80;2.88;;;;;;;-0.07;100.00;93499.28;5012254;28;20096;-76
2021/11/28 08:50:35;;;;;;;5.97;2.40;;;;;;;-0.01;100.00;93504.22;5025522;28;20045;-75
2021/11/28 08:53:00;;;;;;;11.50;4.25;;;;;;;0.01;100.00;93496.22;5029947;28;20057;-75
2021/11/28 08:55:26;;;;;;;6.20;3.40;;;;;;;-0.06;100.00;93501.63;5034142;28;20025;-75
2021/11/28 08:57:52;;;;;;;7.78;3.10;;;;;;;-0.02;100.00;93501.91;5032158;28;20041;-74
2021/11/28 09:00:18;;;;;;;8.00;3.45;;;;;;;-0.04;100.00;93501.38;5055978;28;20048;-73
2021/11/28 09:02:47;;;;;;;10.88;3.13;;;;;;;-0.12;100.00;93507.03;5055655;28;20026;-73
2021/11/28 09:05:12;;;;;;;17.02;4.30;;;;;;;-0.14;100.00;93520.22;5039084;28;20053;-72
2021/11/28 09:07:38;;;;;;;8.40;3.83;;;;;;;-0.06;100.00;93521.53;5035138;28;20057;-74
2021/11/28 09:10:04;;;;;;;6.15;2.72;;;;;;;-0.13;100.00;93523.56;5041384;28;20077;-70
2021/11/28 09:12:30;;;;;;;3.72;2.15;;;;;;;-0.13;100.00;93526.16;5053856;28;20097;-71
2021/11/28 09:14:55;;;;;;;5.65;2.30;;;;;;;-0.13;100.00;93520.97;5050467;28;20026;-70
2021/11/28 09:17:21;;;;;;;3.45;1.90;;;;;;;-0.08;100.00;93515.84;5031535;28;20216;-74
2021/11/28 09:20:01;;;;;;;5.00;2.40;;;;;;;-0.04;100.00;93516.91;5034425;28;20045;-71
2021/11/28 09:25:11;;;;;;;4.87;1.87;;;;;;;0.12;100.00;93513.34;5034648;28;20079;-73
2021/11/28 09:27:41;;;;;;;3.50;1.90;;;;;;;0.19;100.00;93517.50;5035850;28;20291;-73
2021/11/28 09:30:07;;;;;;;3.38;1.80;;;;;;;0.12;100.00;93513.34;5012601;28;20042;-74
2021/11/28 09:32:33;;;;;;;5.47;1.95;;;;;;;0.25;100.00;93521.69;5033851;28;20042;-72
2021/11/28 09:34:58;;;;;;;4.47;1.92;;;;;;;0.19;100.00;93505.34;5010768;28;20045;-75
2021/11/28 09:37:24;;;;;;;3.33;1.85;;;;;;;0.33;100.00;93513.41;5023943;28;20463;-73
2021/11/28 09:39:49;;;;;;;6.18;2.00;;;;;;;0.42;100.00;93500.78;5030599;28;20041;-73
2021/11/28 09:42:27;;;;;;;7.00;2.10;;;;;;;0.51;100.00;93505.19;5031793;28;20049;-74
2021/11/28 09:44:54;;;;;;;6.22;2.17;;;;;;;0.43;100.00;93503.09;5032329;28;20506;-74
2021/11/28 09:47:19;;;;;;;3.92;1.98;;;;;;;0.38;100.00;93505.66;5038452;28;20065;-73
2021/11/28 09:49:45;;;;;;;4.72;1.55;;;;;;;0.29;100.00;93507.22;5031437;28;22419;-73
2021/11/28 09:52:18;;;;;;;2.15;1.40;;;;;;;0.09;100.00;93508.69;5030644;28;20454;-74
2021/11/28 09:54:46;;;;;;;3.30;1.42;;;;;;;0.05;100.00;93502.44;5025111;28;20049;-73
2021/11/28 09:57:14;;;;;;;2.20;1.50;;;;;;;0.06;100.00;93506.59;5031366;28;20052;-75
2021/11/28 09:59:42;;;;;;;6.03;2.10;;;;;;;0.08;100.00;93507.13;5035903;28;20495;-73
2021/11/28 10:02:08;;;;;;;4.55;2.20;;;;;;;0.14;100.00;93500.94;5049788;28;20047;-75
2021/11/28 10:04:34;;;;;;;3.30;1.90;;;;;;;0.17;100.00;93505.63;5033241;28;20049;-74
2021/11/28 10:07:00;;;;;;;4.95;2.45;;;;;;;0.29;100.00;93496.84;5018533;28;20040;-74
2021/11/28 10:09:26;;;;;;;7.20;2.58;;;;;;;0.32;100.00;93497.13;5031340;28;20121;-74
2021/11/28 10:12:26;;;;;;;5.93;2.63;;;;;;;0.32;100.00;93496.34;5030736;28;20040;-75
2021/11/28 10:14:55;;;;;;;7.30;3.20;;;;;;;0.44;100.00;93494.28;5034123;28;20515;-72
2021/11/28 10:17:24;;;;;;;5.25;2.10;;;;;;;0.45;100.00;93495.09;5031071;28;20461;-72
2021/11/28 10:19:50;;;;;;;2.78;1.63;;;;;;;0.38;100.00;93495.31;5038873;28;20087;-74
2021/11/28 10:22:16;;;;;;;3.80;2.38;;;;;;;0.33;100.00;93497.88;5032935;28;20053;-73
2021/11/28 10:25:07;;;;;;;4.82;2.30;;;;;;;0.31;100.00;93484.44;5025727;28;20045;-73
2021/11/28 10:27:41;;;;;;;8.93;2.60;;;;;;;0.29;100.00;93496.84;5028291;28;20450;-72
2021/11/28 10:30:13;;;;;;;4.63;2.00;;;;;;;0.30;100.00;93498.38;5033936;28;20502;-73
2021/11/28 10:32:42;;;;;;;4.30;1.92;;;;;;;0.30;100.00;93498.38;5033261;28;20063;-74
2021/11/28 10:35:10;;;;;;;6.22;2.05;;;;;;;0.25;100.00;93493.22;5008438;28;20050;-73
2021/11/28 10:37:46;;;;;;;4.95;2.00;;;;;;;0.23;100.00;93484.91;5023410;28;20037;-74
2021/11/28 10:40:18;;;;;;;4.75;1.98;;;;;;;0.27;100.00;93484.16;5018252;28;20040;-75
2021/11/28 10:42:48;;;;;;;5.00;2.45;;;;;;;0.19;100.00;93470.94;5030346;28;20049;-76
2021/11/28 10:45:14;;;;;;;4.05;2.08;;;;;;;0.22;100.00;93475.63;5016134;28;20046;-73
2021/11/28 10:47:44;;;;;;;4.25;2.10;;;;;;;0.29;100.00;93465.81;5029102;28;20044;-75
2021/11/28 10:50:25;;;;;;;3.80;2.08;;;;;;;0.35;100.00;93469.97;5025203;28;20156;-75
2021/11/28 10:53:06;;;;;;;6.80;2.15;;;;;;;0.43;100.00;93466.88;5025892;28;20042;-76
2021/11/28 10:55:38;;;;;;;3.97;2.05;;;;;;;0.36;100.00;93458.59;5029034;28;20117;-76
2021/11/28 10:58:04;;;;;;;5.78;2.10;;;;;;;0.41;100.00;93468.94;5035283;28;20044;-75
2021/11/28 11:00:30;;;;;;;4.75;2.53;;;;;;;0.45;100.00;93462.22;5016414;28;20045;-75
2021/11/28 11:02:55;;;;;;;4.55;2.40;;;;;;;0.46;100.00;93461.19;5028738;28;20100;-75
2021/11/28 11:05:25;;;;;;;7.88;3.22;;;;;;;0.47;100.00;93462.72;5025656;28;20104;-76
2021/11/28 11:07:55;;;;;;;6.13;3.30;;;;;;;0.49;100.00;93460.66;5028951;28;20053;-73
2021/11/28 11:10:35;;;;;;;8.07;2.65;;;;;;;0.51;100.00;93468.94;5028001;28;20052;-76
2021/11/28 11:13:05;;;;;;;5.65;2.60;;;;;;;0.45;100.00;93469.97;5026550;28;20121;-75
2021/11/28 11:15:45;;;;;;;4.60;2.40;;;;;;;0.45;100.00;93464.03;5005542;28;20061;-74
2021/11/28 11:18:17;;;;;;;6.90;2.33;;;;;;;0.41;100.00;93463.75;5019485;28;20051;-74
2021/11/28 11:20:46;;;;;;;6.55;2.80;;;;;;;0.47;100.00;93462.72;4992638;28;20046;-77
2021/11/28 11:23:35;;;;;;;5.53;2.10;;;;;;;0.49;100.00;93465.84;5000658;28;20064;-75
2021/11/28 11:26:31;;;;;;;3.60;2.10;;;;;;;0.48;100.00;93468.69;5002535;28;20120;-76
2021/11/28 11:28:58;;;;;;;6.13;2.10;;;;;;;0.43;100.00;93472.06;5009236;28;20057;-75
2021/11/28 11:31:24;;;;;;;7.28;2.20;;;;;;;0.36;100.00;93465.56;5029954;28;20041;-73
2021/11/28 11:33:50;;;;;;;11.10;3.63;;;;;;;0.34;100.00;93463.22;5034168;28;20052;-75